ワルシャワ の空港の天気 - METARとTAF

ワルシャワ・フレデリック・ショパン空港 ( EPWA / WAW ) - ポーランド ワルシャワ
飛行場実況気象(Metar)
観測時間10/16 08:30 CEST (10/16 06:30 UTC)
風向・風速南東 3m/s
視程10km以上
天気現象
なし
気温8℃
湿度87%
気圧1022hPa
METAREPWA 160630Z 14005KT CAVOK 08/06 Q1022 NOSIG
過去の天気等 Google飛行場航空写真 Wunderground天気予報

過去48時間のMETAR

飛行場予報(TAF)
発表時間: 10/16 07:30 CEST (10/16 05:30 UTC)
予報対象時間: 16日8時 CEST ~ 17日8時 CEST
風向・風速南東 3m/s
視程10km以上
なし
17日2時 CEST から 確率 40% で
視程3000m
天気現象もや
TAF EPWA 160530Z 1606/1706 14005KT CAVOK
PROB40 1700/1706 3000 BR